sensor_id;sensor_type;location;lat;lon;timestamp;P1;durP1;ratioP1;P2;durP2;ratioP2
71665;SDS011;59503;53.486;10.196;2023-04-24T00:02:00;11.23;;;6.50;;
71665;SDS011;59503;53.486;10.196;2023-04-24T00:04:26;7.23;;;5.53;;
71665;SDS011;59503;53.486;10.196;2023-04-24T00:06:51;11.23;;;5.93;;
71665;SDS011;59503;53.486;10.196;2023-04-24T00:09:21;9.07;;;6.80;;
71665;SDS011;59503;53.486;10.196;2023-04-24T00:11:47;10.13;;;6.17;;
71665;SDS011;59503;53.486;10.196;2023-04-24T00:14:13;11.03;;;6.53;;
71665;SDS011;59503;53.486;10.196;2023-04-24T00:16:38;7.63;;;5.70;;
71665;SDS011;59503;53.486;10.196;2023-04-24T00:19:03;8.33;;;5.60;;
71665;SDS011;59503;53.486;10.196;2023-04-24T00:21:31;12.35;;;6.10;;
71665;SDS011;59503;53.486;10.196;2023-04-24T00:23:57;9.55;;;6.22;;
71665;SDS011;59503;53.486;10.196;2023-04-24T00:26:23;10.70;;;6.63;;
71665;SDS011;59503;53.486;10.196;2023-04-24T00:28:49;9.93;;;5.80;;
71665;SDS011;59503;53.486;10.196;2023-04-24T00:31:14;10.47;;;6.40;;
71665;SDS011;59503;53.486;10.196;2023-04-24T00:33:40;11.65;;;6.40;;
71665;SDS011;59503;53.486;10.196;2023-04-24T00:36:06;11.33;;;6.93;;
71665;SDS011;59503;53.486;10.196;2023-04-24T00:38:32;11.00;;;6.45;;
71665;SDS011;59503;53.486;10.196;2023-04-24T00:40:58;9.98;;;6.70;;
71665;SDS011;59503;53.486;10.196;2023-04-24T00:43:23;8.67;;;6.37;;
71665;SDS011;59503;53.486;10.196;2023-04-24T00:45:49;9.85;;;6.70;;
71665;SDS011;59503;53.486;10.196;2023-04-24T00:48:15;9.83;;;6.30;;
71665;SDS011;59503;53.486;10.196;2023-04-24T00:50:41;11.20;;;6.35;;
71665;SDS011;59503;53.486;10.196;2023-04-24T00:53:07;9.43;;;6.38;;
71665;SDS011;59503;53.486;10.196;2023-04-24T00:55:32;10.27;;;6.60;;
71665;SDS011;59503;53.486;10.196;2023-04-24T00:57:58;9.90;;;6.30;;
71665;SDS011;59503;53.486;10.196;2023-04-24T01:00:24;9.50;;;6.28;;
71665;SDS011;59503;53.486;10.196;2023-04-24T01:02:50;9.88;;;5.90;;
71665;SDS011;59503;53.486;10.196;2023-04-24T01:05:17;11.40;;;6.40;;
71665;SDS011;59503;53.486;10.196;2023-04-24T01:07:44;9.88;;;6.10;;
71665;SDS011;59503;53.486;10.196;2023-04-24T01:10:12;7.55;;;5.82;;
71665;SDS011;59503;53.486;10.196;2023-04-24T01:12:39;8.60;;;6.07;;
71665;SDS011;59503;53.486;10.196;2023-04-24T01:15:04;8.30;;;5.83;;
71665;SDS011;59503;53.486;10.196;2023-04-24T01:17:31;9.10;;;5.28;;
71665;SDS011;59503;53.486;10.196;2023-04-24T01:19:57;10.45;;;5.78;;
71665;SDS011;59503;53.486;10.196;2023-04-24T01:22:25;8.47;;;5.07;;
71665;SDS011;59503;53.486;10.196;2023-04-24T01:24:51;8.98;;;5.30;;
71665;SDS011;59503;53.486;10.196;2023-04-24T01:27:17;8.60;;;4.95;;
71665;SDS011;59503;53.486;10.196;2023-04-24T01:29:43;8.23;;;4.87;;
71665;SDS011;59503;53.486;10.196;2023-04-24T01:32:08;8.88;;;5.70;;
71665;SDS011;59503;53.486;10.196;2023-04-24T01:34:34;7.67;;;4.67;;
71665;SDS011;59503;53.486;10.196;2023-04-24T01:36:59;9.20;;;5.03;;
71665;SDS011;59503;53.486;10.196;2023-04-24T01:39:25;7.03;;;4.20;;
71665;SDS011;59503;53.486;10.196;2023-04-24T01:41:53;7.53;;;5.25;;
71665;SDS011;59503;53.486;10.196;2023-04-24T01:44:19;8.40;;;4.65;;
71665;SDS011;59503;53.486;10.196;2023-04-24T01:46:45;6.55;;;4.10;;
71665;SDS011;59503;53.486;10.196;2023-04-24T01:49:11;6.00;;;3.97;;
71665;SDS011;59503;53.486;10.196;2023-04-24T01:51:36;5.47;;;3.87;;
71665;SDS011;59503;53.486;10.196;2023-04-24T01:54:02;7.20;;;4.20;;
71665;SDS011;59503;53.486;10.196;2023-04-24T01:56:30;6.88;;;4.30;;
71665;SDS011;59503;53.486;10.196;2023-04-24T01:59:00;6.32;;;4.35;;
71665;SDS011;59503;53.486;10.196;2023-04-24T02:01:29;7.43;;;4.28;;
71665;SDS011;59503;53.486;10.196;2023-04-24T02:03:59;7.43;;;4.53;;
71665;SDS011;59503;53.486;10.196;2023-04-24T02:06:25;10.95;;;4.80;;
71665;SDS011;59503;53.486;10.196;2023-04-24T02:08:51;7.30;;;4.40;;
71665;SDS011;59503;53.486;10.196;2023-04-24T02:11:16;8.53;;;4.90;;
71665;SDS011;59503;53.486;10.196;2023-04-24T02:13:42;7.73;;;4.70;;
71665;SDS011;59503;53.486;10.196;2023-04-24T02:16:07;7.93;;;4.60;;
71665;SDS011;59503;53.486;10.196;2023-04-24T02:18:32;5.83;;;4.03;;
71665;SDS011;59503;53.486;10.196;2023-04-24T02:20:58;6.68;;;4.35;;
71665;SDS011;59503;53.486;10.196;2023-04-24T02:23:23;7.80;;;4.57;;
71665;SDS011;59503;53.486;10.196;2023-04-24T02:25:49;6.53;;;4.23;;
71665;SDS011;59503;53.486;10.196;2023-04-24T02:28:14;6.20;;;3.90;;
71665;SDS011;59503;53.486;10.196;2023-04-24T02:30:39;6.83;;;3.83;;
71665;SDS011;59503;53.486;10.196;2023-04-24T02:33:05;5.97;;;3.70;;
71665;SDS011;59503;53.486;10.196;2023-04-24T02:35:30;4.80;;;3.10;;
71665;SDS011;59503;53.486;10.196;2023-04-24T02:37:56;4.70;;;2.80;;
71665;SDS011;59503;53.486;10.196;2023-04-24T02:40:21;5.88;;;2.65;;
71665;SDS011;59503;53.486;10.196;2023-04-24T02:42:47;5.20;;;2.40;;
71665;SDS011;59503;53.486;10.196;2023-04-24T02:45:12;5.33;;;2.23;;
71665;SDS011;59503;53.486;10.196;2023-04-24T02:47:37;4.33;;;2.30;;
71665;SDS011;59503;53.486;10.196;2023-04-24T02:50:03;3.30;;;2.17;;
71665;SDS011;59503;53.486;10.196;2023-04-24T02:52:29;2.85;;;2.10;;
71665;SDS011;59503;53.486;10.196;2023-04-24T02:54:54;4.20;;;1.97;;
71665;SDS011;59503;53.486;10.196;2023-04-24T02:57:20;3.17;;;1.90;;
71665;SDS011;59503;53.486;10.196;2023-04-24T02:59:45;3.20;;;1.73;;
71665;SDS011;59503;53.486;10.196;2023-04-24T03:02:11;3.83;;;1.60;;
71665;SDS011;59503;53.486;10.196;2023-04-24T03:04:36;6.43;;;1.77;;
71665;SDS011;59503;53.486;10.196;2023-04-24T03:07:02;3.00;;;1.38;;
71665;SDS011;59503;53.486;10.196;2023-04-24T03:09:27;3.03;;;1.60;;
71665;SDS011;59503;53.486;10.196;2023-04-24T03:11:53;4.07;;;1.60;;
71665;SDS011;59503;53.486;10.196;2023-04-24T03:14:18;3.93;;;1.50;;
71665;SDS011;59503;53.486;10.196;2023-04-24T03:16:44;3.38;;;1.30;;
71665;SDS011;59503;53.486;10.196;2023-04-24T03:19:10;3.00;;;1.50;;
71665;SDS011;59503;53.486;10.196;2023-04-24T03:21:35;5.53;;;1.40;;
71665;SDS011;59503;53.486;10.196;2023-04-24T03:24:05;1.77;;;1.30;;
71665;SDS011;59503;53.486;10.196;2023-04-24T03:26:31;2.40;;;1.65;;
71665;SDS011;59503;53.486;10.196;2023-04-24T03:28:57;2.60;;;1.60;;
71665;SDS011;59503;53.486;10.196;2023-04-24T03:31:22;2.77;;;1.90;;
71665;SDS011;59503;53.486;10.196;2023-04-24T03:33:48;3.33;;;1.80;;
71665;SDS011;59503;53.486;10.196;2023-04-24T03:36:13;2.10;;;1.40;;
71665;SDS011;59503;53.486;10.196;2023-04-24T03:38:39;2.20;;;1.50;;
71665;SDS011;59503;53.486;10.196;2023-04-24T03:41:05;5.33;;;1.67;;
71665;SDS011;59503;53.486;10.196;2023-04-24T03:43:30;3.67;;;1.60;;
71665;SDS011;59503;53.486;10.196;2023-04-24T03:45:58;2.28;;;1.58;;
71665;SDS011;59503;53.486;10.196;2023-04-24T03:48:23;2.65;;;1.60;;
71665;SDS011;59503;53.486;10.196;2023-04-24T03:50:49;2.73;;;1.63;;
71665;SDS011;59503;53.486;10.196;2023-04-24T03:53:15;4.97;;;1.67;;
71665;SDS011;59503;53.486;10.196;2023-04-24T03:55:40;3.38;;;1.50;;
71665;SDS011;59503;53.486;10.196;2023-04-24T03:58:06;2.50;;;1.47;;
71665;SDS011;59503;53.486;10.196;2023-04-24T04:00:31;3.30;;;1.70;;
71665;SDS011;59503;53.486;10.196;2023-04-24T04:02:57;2.08;;;1.65;;
71665;SDS011;59503;53.486;10.196;2023-04-24T04:05:22;3.50;;;1.30;;
71665;SDS011;59503;53.486;10.196;2023-04-24T04:07:48;1.73;;;1.17;;
71665;SDS011;59503;53.486;10.196;2023-04-24T04:10:13;1.90;;;1.35;;
71665;SDS011;59503;53.486;10.196;2023-04-24T04:12:39;2.37;;;1.60;;
71665;SDS011;59503;53.486;10.196;2023-04-24T04:15:04;3.17;;;1.53;;
71665;SDS011;59503;53.486;10.196;2023-04-24T04:17:31;3.15;;;1.60;;
71665;SDS011;59503;53.486;10.196;2023-04-24T04:19:57;2.00;;;1.33;;
71665;SDS011;59503;53.486;10.196;2023-04-24T04:22:22;3.30;;;1.47;;
71665;SDS011;59503;53.486;10.196;2023-04-24T04:24:48;2.87;;;1.30;;
71665;SDS011;59503;53.486;10.196;2023-04-24T04:27:13;2.80;;;1.67;;
71665;SDS011;59503;53.486;10.196;2023-04-24T04:29:39;1.77;;;1.40;;
71665;SDS011;59503;53.486;10.196;2023-04-24T04:32:05;1.83;;;1.20;;
71665;SDS011;59503;53.486;10.196;2023-04-24T04:34:31;3.33;;;1.60;;
71665;SDS011;59503;53.486;10.196;2023-04-24T04:36:56;2.40;;;1.30;;
71665;SDS011;59503;53.486;10.196;2023-04-24T04:39:24;2.42;;;1.40;;
71665;SDS011;59503;53.486;10.196;2023-04-24T04:41:50;1.77;;;1.10;;
71665;SDS011;59503;53.486;10.196;2023-04-24T04:44:15;1.70;;;1.10;;
71665;SDS011;59503;53.486;10.196;2023-04-24T04:46:41;1.70;;;1.20;;
71665;SDS011;59503;53.486;10.196;2023-04-24T04:49:07;2.95;;;1.20;;
71665;SDS011;59503;53.486;10.196;2023-04-24T04:51:36;1.95;;;1.30;;
71665;SDS011;59503;53.486;10.196;2023-04-24T04:54:02;2.03;;;1.00;;
71665;SDS011;59503;53.486;10.196;2023-04-24T04:56:27;1.57;;;1.20;;
71665;SDS011;59503;53.486;10.196;2023-04-24T04:58:53;2.57;;;1.00;;
71665;SDS011;59503;53.486;10.196;2023-04-24T05:01:18;1.63;;;1.20;;
71665;SDS011;59503;53.486;10.196;2023-04-24T05:03:44;1.47;;;1.10;;
71665;SDS011;59503;53.486;10.196;2023-04-24T05:06:10;2.05;;;1.27;;
71665;SDS011;59503;53.486;10.196;2023-04-24T05:08:35;1.73;;;1.20;;
71665;SDS011;59503;53.486;10.196;2023-04-24T05:11:00;2.63;;;1.20;;
71665;SDS011;59503;53.486;10.196;2023-04-24T05:13:26;3.65;;;1.38;;
71665;SDS011;59503;53.486;10.196;2023-04-24T05:15:52;2.20;;;1.30;;
71665;SDS011;59503;53.486;10.196;2023-04-24T05:18:17;1.60;;;1.13;;
71665;SDS011;59503;53.486;10.196;2023-04-24T05:20:43;3.77;;;2.10;;
71665;SDS011;59503;53.486;10.196;2023-04-24T05:23:11;2.80;;;1.50;;
71665;SDS011;59503;53.486;10.196;2023-04-24T05:25:36;3.87;;;1.50;;
71665;SDS011;59503;53.486;10.196;2023-04-24T05:28:03;2.83;;;1.30;;
71665;SDS011;59503;53.486;10.196;2023-04-24T05:30:29;3.10;;;1.40;;
71665;SDS011;59503;53.486;10.196;2023-04-24T05:32:54;1.85;;;1.25;;
71665;SDS011;59503;53.486;10.196;2023-04-24T05:35:20;1.60;;;1.20;;
71665;SDS011;59503;53.486;10.196;2023-04-24T05:37:45;2.90;;;1.00;;
71665;SDS011;59503;53.486;10.196;2023-04-24T05:40:10;1.92;;;1.20;;
71665;SDS011;59503;53.486;10.196;2023-04-24T05:42:36;2.47;;;1.07;;
71665;SDS011;59503;53.486;10.196;2023-04-24T05:45:02;2.85;;;1.08;;
71665;SDS011;59503;53.486;10.196;2023-04-24T05:47:28;1.27;;;1.00;;
71665;SDS011;59503;53.486;10.196;2023-04-24T05:49:53;2.00;;;1.13;;
71665;SDS011;59503;53.486;10.196;2023-04-24T05:52:19;2.23;;;0.97;;
71665;SDS011;59503;53.486;10.196;2023-04-24T05:54:44;1.37;;;0.80;;
71665;SDS011;59503;53.486;10.196;2023-04-24T05:57:10;1.27;;;0.70;;
71665;SDS011;59503;53.486;10.196;2023-04-24T05:59:38;1.40;;;0.97;;
71665;SDS011;59503;53.486;10.196;2023-04-24T06:02:04;1.15;;;0.82;;
71665;SDS011;59503;53.486;10.196;2023-04-24T06:04:29;1.43;;;0.80;;
71665;SDS011;59503;53.486;10.196;2023-04-24T06:06:55;2.75;;;0.80;;
71665;SDS011;59503;53.486;10.196;2023-04-24T06:09:24;1.87;;;0.63;;
71665;SDS011;59503;53.486;10.196;2023-04-24T06:11:49;2.35;;;0.80;;
71665;SDS011;59503;53.486;10.196;2023-04-24T06:14:17;4.20;;;0.65;;
71665;SDS011;59503;53.486;10.196;2023-04-24T06:16:43;2.20;;;0.90;;
71665;SDS011;59503;53.486;10.196;2023-04-24T06:19:09;1.83;;;0.90;;
71665;SDS011;59503;53.486;10.196;2023-04-24T06:21:34;1.30;;;0.90;;
71665;SDS011;59503;53.486;10.196;2023-04-24T06:24:00;1.93;;;1.00;;
71665;SDS011;59503;53.486;10.196;2023-04-24T06:26:25;1.05;;;0.75;;
71665;SDS011;59503;53.486;10.196;2023-04-24T06:28:51;1.35;;;0.95;;
71665;SDS011;59503;53.486;10.196;2023-04-24T06:31:19;4.20;;;0.90;;
71665;SDS011;59503;53.486;10.196;2023-04-24T06:33:45;3.05;;;1.08;;
71665;SDS011;59503;53.486;10.196;2023-04-24T06:36:12;1.50;;;1.00;;
71665;SDS011;59503;53.486;10.196;2023-04-24T06:38:37;2.87;;;1.10;;
71665;SDS011;59503;53.486;10.196;2023-04-24T06:41:03;1.85;;;0.95;;
71665;SDS011;59503;53.486;10.196;2023-04-24T06:43:30;2.03;;;1.03;;
71665;SDS011;59503;53.486;10.196;2023-04-24T06:45:57;1.40;;;0.98;;
71665;SDS011;59503;53.486;10.196;2023-04-24T06:48:23;2.67;;;1.02;;
71665;SDS011;59503;53.486;10.196;2023-04-24T06:50:49;5.28;;;1.20;;
71665;SDS011;59503;53.486;10.196;2023-04-24T06:53:15;2.37;;;1.00;;
71665;SDS011;59503;53.486;10.196;2023-04-24T06:55:40;5.35;;;1.15;;
71665;SDS011;59503;53.486;10.196;2023-04-24T06:58:06;2.63;;;1.50;;
71665;SDS011;59503;53.486;10.196;2023-04-24T07:00:31;1.93;;;1.00;;
71665;SDS011;59503;53.486;10.196;2023-04-24T07:02:57;1.95;;;1.20;;
71665;SDS011;59503;53.486;10.196;2023-04-24T07:05:22;3.20;;;1.40;;
71665;SDS011;59503;53.486;10.196;2023-04-24T07:07:48;1.95;;;1.10;;
71665;SDS011;59503;53.486;10.196;2023-04-24T07:10:14;2.37;;;1.50;;
71665;SDS011;59503;53.486;10.196;2023-04-24T07:12:40;1.50;;;1.15;;
71665;SDS011;59503;53.486;10.196;2023-04-24T07:15:06;1.70;;;1.20;;
71665;SDS011;59503;53.486;10.196;2023-04-24T07:17:33;1.80;;;1.30;;
71665;SDS011;59503;53.486;10.196;2023-04-24T07:19:59;2.37;;;1.10;;
71665;SDS011;59503;53.486;10.196;2023-04-24T07:22:25;2.45;;;1.40;;
71665;SDS011;59503;53.486;10.196;2023-04-24T07:24:51;2.87;;;1.80;;
71665;SDS011;59503;53.486;10.196;2023-04-24T07:27:16;5.13;;;1.63;;
71665;SDS011;59503;53.486;10.196;2023-04-24T07:29:41;3.78;;;1.60;;
71665;SDS011;59503;53.486;10.196;2023-04-24T07:32:07;1.90;;;1.50;;
71665;SDS011;59503;53.486;10.196;2023-04-24T07:34:34;3.17;;;1.60;;
71665;SDS011;59503;53.486;10.196;2023-04-24T07:36:59;2.10;;;1.52;;
71665;SDS011;59503;53.486;10.196;2023-04-24T07:39:25;2.30;;;1.33;;
71665;SDS011;59503;53.486;10.196;2023-04-24T07:41:51;2.58;;;1.50;;
71665;SDS011;59503;53.486;10.196;2023-04-24T07:44:17;3.70;;;1.83;;
71665;SDS011;59503;53.486;10.196;2023-04-24T07:46:42;4.75;;;1.80;;
71665;SDS011;59503;53.486;10.196;2023-04-24T07:49:08;1.70;;;1.33;;
71665;SDS011;59503;53.486;10.196;2023-04-24T07:51:33;2.53;;;1.58;;
71665;SDS011;59503;53.486;10.196;2023-04-24T07:54:03;2.10;;;1.30;;
71665;SDS011;59503;53.486;10.196;2023-04-24T07:56:31;2.45;;;1.48;;
71665;SDS011;59503;53.486;10.196;2023-04-24T07:58:56;1.50;;;1.30;;
71665;SDS011;59503;53.486;10.196;2023-04-24T08:01:22;5.00;;;1.40;;
71665;SDS011;59503;53.486;10.196;2023-04-24T08:03:47;2.67;;;1.80;;
71665;SDS011;59503;53.486;10.196;2023-04-24T08:06:12;3.10;;;1.40;;
71665;SDS011;59503;53.486;10.196;2023-04-24T08:08:38;1.90;;;1.50;;
71665;SDS011;59503;53.486;10.196;2023-04-24T08:11:03;12.67;;;1.80;;
71665;SDS011;59503;53.486;10.196;2023-04-24T08:13:29;2.97;;;1.50;;
71665;SDS011;59503;53.486;10.196;2023-04-24T08:15:54;2.70;;;1.80;;
71665;SDS011;59503;53.486;10.196;2023-04-24T08:18:21;2.10;;;1.63;;
71665;SDS011;59503;53.486;10.196;2023-04-24T08:20:47;2.50;;;1.90;;
71665;SDS011;59503;53.486;10.196;2023-04-24T08:23:12;3.10;;;2.13;;
71665;SDS011;59503;53.486;10.196;2023-04-24T08:25:38;3.15;;;1.77;;
71665;SDS011;59503;53.486;10.196;2023-04-24T08:28:05;7.53;;;2.20;;
71665;SDS011;59503;53.486;10.196;2023-04-24T08:30:31;3.28;;;2.47;;
71665;SDS011;59503;53.486;10.196;2023-04-24T08:32:57;3.40;;;2.90;;
71665;SDS011;59503;53.486;10.196;2023-04-24T08:35:23;5.03;;;2.90;;
71665;SDS011;59503;53.486;10.196;2023-04-24T08:37:48;4.20;;;2.90;;
71665;SDS011;59503;53.486;10.196;2023-04-24T08:40:14;3.83;;;3.10;;
71665;SDS011;59503;53.486;10.196;2023-04-24T08:42:43;3.58;;;3.00;;
71665;SDS011;59503;53.486;10.196;2023-04-24T08:45:10;4.20;;;2.83;;
71665;SDS011;59503;53.486;10.196;2023-04-24T08:47:40;3.05;;;2.75;;
71665;SDS011;59503;53.486;10.196;2023-04-24T08:50:07;3.85;;;3.55;;
71665;SDS011;59503;53.486;10.196;2023-04-24T08:52:34;5.00;;;3.17;;
71665;SDS011;59503;53.486;10.196;2023-04-24T08:55:00;4.55;;;3.20;;
71665;SDS011;59503;53.486;10.196;2023-04-24T08:57:26;3.60;;;3.05;;
71665;SDS011;59503;53.486;10.196;2023-04-24T08:59:52;4.63;;;2.97;;
71665;SDS011;59503;53.486;10.196;2023-04-24T09:02:19;4.43;;;3.77;;
71665;SDS011;59503;53.486;10.196;2023-04-24T09:04:46;4.82;;;3.90;;
71665;SDS011;59503;53.486;10.196;2023-04-24T09:07:12;4.07;;;3.28;;
71665;SDS011;59503;53.486;10.196;2023-04-24T09:09:40;5.55;;;3.63;;
71665;SDS011;59503;53.486;10.196;2023-04-24T09:12:06;4.35;;;3.53;;
71665;SDS011;59503;53.486;10.196;2023-04-24T09:14:34;4.97;;;3.40;;
71665;SDS011;59503;53.486;10.196;2023-04-24T09:17:01;5.38;;;3.40;;
71665;SDS011;59503;53.486;10.196;2023-04-24T09:19:27;4.03;;;3.47;;
71665;SDS011;59503;53.486;10.196;2023-04-24T09:21:53;5.50;;;3.80;;
71665;SDS011;59503;53.486;10.196;2023-04-24T09:24:20;4.80;;;3.25;;
71665;SDS011;59503;53.486;10.196;2023-04-24T09:26:57;5.75;;;3.17;;
71665;SDS011;59503;53.486;10.196;2023-04-24T09:29:24;3.60;;;3.20;;
71665;SDS011;59503;53.486;10.196;2023-04-24T09:31:50;4.15;;;3.53;;
71665;SDS011;59503;53.486;10.196;2023-04-24T09:34:18;3.77;;;3.20;;
71665;SDS011;59503;53.486;10.196;2023-04-24T09:36:46;5.50;;;4.13;;
71665;SDS011;59503;53.486;10.196;2023-04-24T09:39:14;5.90;;;4.40;;
71665;SDS011;59503;53.486;10.196;2023-04-24T09:41:45;4.55;;;3.63;;
71665;SDS011;59503;53.486;10.196;2023-04-24T09:44:15;5.37;;;3.50;;
71665;SDS011;59503;53.486;10.196;2023-04-24T09:46:43;4.93;;;2.90;;
71665;SDS011;59503;53.486;10.196;2023-04-24T09:49:13;4.00;;;2.85;;
71665;SDS011;59503;53.486;10.196;2023-04-24T09:51:40;11.85;;;3.35;;
71665;SDS011;59503;53.486;10.196;2023-04-24T09:54:16;4.20;;;2.80;;
71665;SDS011;59503;53.486;10.196;2023-04-24T09:56:45;5.00;;;3.30;;
71665;SDS011;59503;53.486;10.196;2023-04-24T09:59:14;5.07;;;3.50;;
71665;SDS011;59503;53.486;10.196;2023-04-24T10:01:41;4.60;;;3.63;;
71665;SDS011;59503;53.486;10.196;2023-04-24T10:04:18;5.70;;;3.50;;
71665;SDS011;59503;53.486;10.196;2023-04-24T10:06:46;8.02;;;4.03;;
71665;SDS011;59503;53.486;10.196;2023-04-24T10:09:14;6.30;;;4.05;;
71665;SDS011;59503;53.486;10.196;2023-04-24T10:11:44;6.20;;;3.90;;
71665;SDS011;59503;53.486;10.196;2023-04-24T10:14:14;6.30;;;3.97;;
71665;SDS011;59503;53.486;10.196;2023-04-24T10:16:41;6.40;;;4.15;;
71665;SDS011;59503;53.486;10.196;2023-04-24T10:19:07;6.88;;;4.40;;
71665;SDS011;59503;53.486;10.196;2023-04-24T10:21:34;5.67;;;4.10;;
71665;SDS011;59503;53.486;10.196;2023-04-24T10:24:02;6.03;;;3.97;;
71665;SDS011;59503;53.486;10.196;2023-04-24T10:26:32;7.30;;;4.28;;
71665;SDS011;59503;53.486;10.196;2023-04-24T10:28:58;6.63;;;4.55;;
71665;SDS011;59503;53.486;10.196;2023-04-24T10:31:24;8.23;;;4.87;;
71665;SDS011;59503;53.486;10.196;2023-04-24T10:33:50;7.95;;;4.30;;
71665;SDS011;59503;53.486;10.196;2023-04-24T10:36:17;7.18;;;4.68;;
71665;SDS011;59503;53.486;10.196;2023-04-24T10:38:44;9.95;;;5.00;;
71665;SDS011;59503;53.486;10.196;2023-04-24T10:41:12;7.63;;;5.10;;
71665;SDS011;59503;53.486;10.196;2023-04-24T10:43:44;7.30;;;4.77;;
71665;SDS011;59503;53.486;10.196;2023-04-24T10:46:10;8.90;;;5.43;;
71665;SDS011;59503;53.486;10.196;2023-04-24T10:48:44;7.43;;;5.30;;
71665;SDS011;59503;53.486;10.196;2023-04-24T10:51:21;8.20;;;5.63;;
71665;SDS011;59503;53.486;10.196;2023-04-24T10:54:21;9.05;;;5.00;;
71665;SDS011;59503;53.486;10.196;2023-04-24T11:02:45;8.48;;;5.80;;
71665;SDS011;59503;53.486;10.196;2023-04-24T11:05:17;9.80;;;5.90;;
71665;SDS011;59503;53.486;10.196;2023-04-24T11:10:54;9.40;;;5.83;;
71665;SDS011;59503;53.486;10.196;2023-04-24T11:13:23;11.18;;;6.00;;
71665;SDS011;59503;53.486;10.196;2023-04-24T11:27:15;8.80;;;5.10;;
71665;SDS011;59503;53.486;10.196;2023-04-24T11:29:49;9.93;;;5.22;;
71665;SDS011;59503;53.486;10.196;2023-04-24T11:37:29;8.87;;;4.20;;
71665;SDS011;59503;53.486;10.196;2023-04-24T11:39:59;7.47;;;4.55;;
71665;SDS011;59503;53.486;10.196;2023-04-24T11:42:25;6.70;;;4.00;;
71665;SDS011;59503;53.486;10.196;2023-04-24T11:44:54;6.53;;;4.30;;
71665;SDS011;59503;53.486;10.196;2023-04-24T11:47:31;5.90;;;4.20;;
71665;SDS011;59503;53.486;10.196;2023-04-24T11:49:58;5.50;;;4.13;;
71665;SDS011;59503;53.486;10.196;2023-04-24T11:52:25;8.37;;;4.00;;
71665;SDS011;59503;53.486;10.196;2023-04-24T11:54:51;6.18;;;4.00;;
71665;SDS011;59503;53.486;10.196;2023-04-24T11:57:18;6.90;;;4.97;;
71665;SDS011;59503;53.486;10.196;2023-04-24T11:59:45;5.23;;;3.83;;
71665;SDS011;59503;53.486;10.196;2023-04-24T12:02:21;7.07;;;3.92;;
71665;SDS011;59503;53.486;10.196;2023-04-24T12:04:51;8.82;;;4.63;;
71665;SDS011;59503;53.486;10.196;2023-04-24T12:07:17;7.15;;;4.25;;
71665;SDS011;59503;53.486;10.196;2023-04-24T12:09:44;4.83;;;3.83;;
71665;SDS011;59503;53.486;10.196;2023-04-24T12:12:14;5.78;;;4.20;;
71665;SDS011;59503;53.486;10.196;2023-04-24T12:17:09;6.73;;;3.50;;
71665;SDS011;59503;53.486;10.196;2023-04-24T12:19:34;5.68;;;3.40;;
71665;SDS011;59503;53.486;10.196;2023-04-24T12:22:04;5.63;;;3.83;;
71665;SDS011;59503;53.486;10.196;2023-04-24T12:24:31;5.18;;;3.53;;
71665;SDS011;59503;53.486;10.196;2023-04-24T12:26:57;6.50;;;3.35;;
71665;SDS011;59503;53.486;10.196;2023-04-24T12:29:23;5.17;;;3.40;;
71665;SDS011;59503;53.486;10.196;2023-04-24T12:31:50;4.72;;;3.40;;
71665;SDS011;59503;53.486;10.196;2023-04-24T12:34:20;4.85;;;3.00;;
71665;SDS011;59503;53.486;10.196;2023-04-24T12:36:46;4.45;;;2.92;;
71665;SDS011;59503;53.486;10.196;2023-04-24T12:39:19;5.13;;;3.50;;
71665;SDS011;59503;53.486;10.196;2023-04-24T12:41:57;4.57;;;3.57;;
71665;SDS011;59503;53.486;10.196;2023-04-24T12:46:56;5.03;;;4.07;;
71665;SDS011;59503;53.486;10.196;2023-04-24T12:49:22;5.07;;;3.43;;
71665;SDS011;59503;53.486;10.196;2023-04-24T12:51:47;6.35;;;3.33;;
71665;SDS011;59503;53.486;10.196;2023-04-24T12:54:13;4.80;;;3.83;;
71665;SDS011;59503;53.486;10.196;2023-04-24T12:56:38;5.53;;;3.50;;
71665;SDS011;59503;53.486;10.196;2023-04-24T12:59:04;4.17;;;3.30;;
71665;SDS011;59503;53.486;10.196;2023-04-24T13:01:30;4.32;;;2.60;;
71665;SDS011;59503;53.486;10.196;2023-04-24T13:03:56;3.37;;;2.27;;
71665;SDS011;59503;53.486;10.196;2023-04-24T13:06:21;3.45;;;2.60;;
71665;SDS011;59503;53.486;10.196;2023-04-24T13:08:47;3.80;;;2.87;;
71665;SDS011;59503;53.486;10.196;2023-04-24T13:11:13;3.85;;;2.72;;
71665;SDS011;59503;53.486;10.196;2023-04-24T13:13:39;4.87;;;3.10;;
71665;SDS011;59503;53.486;10.196;2023-04-24T13:16:05;3.88;;;2.75;;
71665;SDS011;59503;53.486;10.196;2023-04-24T13:18:30;3.63;;;2.67;;
71665;SDS011;59503;53.486;10.196;2023-04-24T13:20:55;3.60;;;3.20;;
71665;SDS011;59503;53.486;10.196;2023-04-24T13:23:21;4.18;;;3.22;;
71665;SDS011;59503;53.486;10.196;2023-04-24T13:25:47;4.60;;;3.30;;
71665;SDS011;59503;53.486;10.196;2023-04-24T13:28:13;6.87;;;3.67;;
71665;SDS011;59503;53.486;10.196;2023-04-24T13:30:38;10.27;;;4.23;;
71665;SDS011;59503;53.486;10.196;2023-04-24T13:33:04;5.25;;;4.05;;
71665;SDS011;59503;53.486;10.196;2023-04-24T13:35:30;6.40;;;4.17;;
71665;SDS011;59503;53.486;10.196;2023-04-24T13:37:56;4.93;;;4.30;;
71665;SDS011;59503;53.486;10.196;2023-04-24T13:40:22;6.63;;;4.13;;
71665;SDS011;59503;53.486;10.196;2023-04-24T13:42:48;6.07;;;3.88;;
71665;SDS011;59503;53.486;10.196;2023-04-24T13:45:14;7.17;;;3.70;;
71665;SDS011;59503;53.486;10.196;2023-04-24T13:47:39;4.82;;;3.40;;
71665;SDS011;59503;53.486;10.196;2023-04-24T13:50:06;7.63;;;3.80;;
71665;SDS011;59503;53.486;10.196;2023-04-24T13:52:33;5.20;;;3.55;;
71665;SDS011;59503;53.486;10.196;2023-04-24T13:54:59;4.70;;;3.70;;
71665;SDS011;59503;53.486;10.196;2023-04-24T13:57:25;4.17;;;3.60;;
71665;SDS011;59503;53.486;10.196;2023-04-24T13:59:50;3.95;;;3.42;;
71665;SDS011;59503;53.486;10.196;2023-04-24T14:02:15;4.13;;;3.50;;
71665;SDS011;59503;53.486;10.196;2023-04-24T14:04:41;4.57;;;3.63;;
71665;SDS011;59503;53.486;10.196;2023-04-24T14:07:06;3.27;;;2.93;;
71665;SDS011;59503;53.486;10.196;2023-04-24T14:09:33;4.85;;;3.35;;
71665;SDS011;59503;53.486;10.196;2023-04-24T14:11:59;5.68;;;3.17;;
71665;SDS011;59503;53.486;10.196;2023-04-24T14:14:26;4.88;;;3.30;;
71665;SDS011;59503;53.486;10.196;2023-04-24T14:16:52;3.57;;;2.80;;
71665;SDS011;59503;53.486;10.196;2023-04-24T14:19:17;4.80;;;2.83;;
71665;SDS011;59503;53.486;10.196;2023-04-24T14:21:43;4.00;;;2.93;;
71665;SDS011;59503;53.486;10.196;2023-04-24T14:24:08;3.42;;;2.70;;
71665;SDS011;59503;53.486;10.196;2023-04-24T14:26:34;3.43;;;2.83;;
71665;SDS011;59503;53.486;10.196;2023-04-24T14:29:00;3.10;;;2.72;;
71665;SDS011;59503;53.486;10.196;2023-04-24T14:31:25;3.10;;;2.50;;
71665;SDS011;59503;53.486;10.196;2023-04-24T14:33:51;9.18;;;2.83;;
71665;SDS011;59503;53.486;10.196;2023-04-24T14:36:16;5.53;;;2.50;;
71665;SDS011;59503;53.486;10.196;2023-04-24T14:38:42;3.80;;;2.27;;
71665;SDS011;59503;53.486;10.196;2023-04-24T14:41:07;3.43;;;2.53;;
71665;SDS011;59503;53.486;10.196;2023-04-24T14:43:35;3.47;;;2.47;;
71665;SDS011;59503;53.486;10.196;2023-04-24T14:46:04;3.72;;;2.70;;
71665;SDS011;59503;53.486;10.196;2023-04-24T14:48:30;4.18;;;2.67;;
71665;SDS011;59503;53.486;10.196;2023-04-24T14:50:55;4.43;;;2.70;;
71665;SDS011;59503;53.486;10.196;2023-04-24T14:53:21;3.83;;;2.90;;
71665;SDS011;59503;53.486;10.196;2023-04-24T14:55:46;2.70;;;2.30;;
71665;SDS011;59503;53.486;10.196;2023-04-24T14:58:11;5.23;;;2.30;;
71665;SDS011;59503;53.486;10.196;2023-04-24T15:00:37;2.43;;;1.90;;